sensor_id;sensor_type;location;lat;lon;timestamp;P1;durP1;ratioP1;P2;durP2;ratioP2
46339;SDS011;47273;49.274;8.708;2022-12-07T10:25:46;19.45;;;8.95;;
46339;SDS011;47273;49.274;8.708;2022-12-07T10:28:15;22.17;;;9.82;;
46339;SDS011;47273;49.274;8.708;2022-12-07T10:30:50;23.10;;;10.88;;
46339;SDS011;47273;49.274;8.708;2022-12-07T10:36:19;21.42;;;10.05;;
46339;SDS011;47273;49.274;8.708;2022-12-07T10:38:49;20.30;;;10.13;;
46339;SDS011;47273;49.274;8.708;2022-12-07T10:41:16;20.95;;;10.40;;
46339;SDS011;47273;49.274;8.708;2022-12-07T10:43:50;23.63;;;11.48;;
46339;SDS011;47273;49.274;8.708;2022-12-07T10:46:25;20.13;;;9.43;;
46339;SDS011;47273;49.274;8.708;2022-12-07T10:52:22;25.20;;;9.82;;
46339;SDS011;47273;49.274;8.708;2022-12-07T11:00:22;22.38;;;9.23;;
46339;SDS011;47273;49.274;8.708;2022-12-07T11:16:08;15.70;;;8.93;;
46339;SDS011;47273;49.274;8.708;2022-12-07T11:24:32;19.65;;;7.00;;
46339;SDS011;47273;49.274;8.708;2022-12-07T11:27:15;15.75;;;8.18;;
46339;SDS011;47273;49.274;8.708;2022-12-07T11:37:14;18.50;;;8.60;;
46339;SDS011;47273;49.274;8.708;2022-12-07T11:39:50;19.45;;;9.32;;
46339;SDS011;47273;49.274;8.708;2022-12-07T11:42:21;19.08;;;8.98;;
46339;SDS011;47273;49.274;8.708;2022-12-07T11:44:55;17.00;;;7.60;;
46339;SDS011;47273;49.274;8.708;2022-12-07T11:52:47;25.70;;;10.52;;
46339;SDS011;47273;49.274;8.708;2022-12-07T12:06:38;23.20;;;9.95;;
46339;SDS011;47273;49.274;8.708;2022-12-07T12:11:55;18.25;;;8.57;;
46339;SDS011;47273;49.274;8.708;2022-12-07T12:14:43;14.98;;;8.20;;
46339;SDS011;47273;49.274;8.708;2022-12-07T12:17:31;17.67;;;7.97;;
46339;SDS011;47273;49.274;8.708;2022-12-07T12:23:00;17.70;;;9.20;;
46339;SDS011;47273;49.274;8.708;2022-12-07T12:28:05;22.30;;;9.77;;
46339;SDS011;47273;49.274;8.708;2022-12-07T12:30:42;17.02;;;8.18;;
46339;SDS011;47273;49.274;8.708;2022-12-07T12:35:43;16.95;;;8.35;;
46339;SDS011;47273;49.274;8.708;2022-12-07T12:40:55;19.95;;;8.45;;
46339;SDS011;47273;49.274;8.708;2022-12-07T12:43:40;22.70;;;9.52;;
46339;SDS011;47273;49.274;8.708;2022-12-07T12:49:40;22.85;;;8.68;;
46339;SDS011;47273;49.274;8.708;2022-12-07T12:51:41;17.67;;;8.77;;
46339;SDS011;47273;49.274;8.708;2022-12-07T12:59:35;24.42;;;10.10;;
46339;SDS011;47273;49.274;8.708;2022-12-07T13:02:16;23.55;;;10.52;;
46339;SDS011;47273;49.274;8.708;2022-12-07T13:15:47;19.27;;;8.32;;
46339;SDS011;47273;49.274;8.708;2022-12-07T13:20:57;16.40;;;8.25;;
46339;SDS011;47273;49.274;8.708;2022-12-07T13:23:25;19.35;;;9.45;;
46339;SDS011;47273;49.274;8.708;2022-12-07T13:25:54;19.98;;;9.93;;
46339;SDS011;47273;49.274;8.708;2022-12-07T13:28:40;18.13;;;8.48;;
46339;SDS011;47273;49.274;8.708;2022-12-07T13:31:29;19.85;;;9.05;;
46339;SDS011;47273;49.274;8.708;2022-12-07T13:34:04;22.83;;;10.00;;
46339;SDS011;47273;49.274;8.708;2022-12-07T13:36:50;19.67;;;9.77;;
46339;SDS011;47273;49.274;8.708;2022-12-07T13:41:44;20.75;;;8.75;;
46339;SDS011;47273;49.274;8.708;2022-12-07T13:44:18;14.27;;;7.55;;
46339;SDS011;47273;49.274;8.708;2022-12-07T13:51:53;16.27;;;8.25;;
46339;SDS011;47273;49.274;8.708;2022-12-07T13:54:31;20.35;;;8.57;;
46339;SDS011;47273;49.274;8.708;2022-12-07T13:56:57;18.52;;;8.57;;
46339;SDS011;47273;49.274;8.708;2022-12-07T13:59:24;19.88;;;9.30;;
46339;SDS011;47273;49.274;8.708;2022-12-07T14:01:51;15.63;;;8.05;;
46339;SDS011;47273;49.274;8.708;2022-12-07T14:06:56;20.17;;;7.97;;
46339;SDS011;47273;49.274;8.708;2022-12-07T14:09:23;14.77;;;7.80;;
46339;SDS011;47273;49.274;8.708;2022-12-07T14:11:51;14.38;;;7.60;;
46339;SDS011;47273;49.274;8.708;2022-12-07T14:14:29;19.27;;;8.13;;
46339;SDS011;47273;49.274;8.708;2022-12-07T14:19:45;20.90;;;8.68;;
46339;SDS011;47273;49.274;8.708;2022-12-07T14:22:29;18.55;;;8.35;;
46339;SDS011;47273;49.274;8.708;2022-12-07T14:27:30;22.23;;;9.43;;
46339;SDS011;47273;49.274;8.708;2022-12-07T14:29:59;19.20;;;8.85;;
46339;SDS011;47273;49.274;8.708;2022-12-07T14:32:27;16.88;;;8.38;;
46339;SDS011;47273;49.274;8.708;2022-12-07T14:34:55;24.88;;;10.27;;
46339;SDS011;47273;49.274;8.708;2022-12-07T14:37:25;14.63;;;8.50;;
46339;SDS011;47273;49.274;8.708;2022-12-07T14:39:52;17.50;;;8.43;;
46339;SDS011;47273;49.274;8.708;2022-12-07T14:42:18;18.92;;;9.05;;
46339;SDS011;47273;49.274;8.708;2022-12-07T14:44:44;20.13;;;9.10;;
46339;SDS011;47273;49.274;8.708;2022-12-07T14:47:10;19.48;;;9.40;;
46339;SDS011;47273;49.274;8.708;2022-12-07T14:49:36;21.17;;;9.88;;
46339;SDS011;47273;49.274;8.708;2022-12-07T14:52:02;20.90;;;10.13;;
46339;SDS011;47273;49.274;8.708;2022-12-07T14:54:29;18.52;;;9.40;;
46339;SDS011;47273;49.274;8.708;2022-12-07T14:56:56;19.90;;;8.73;;
46339;SDS011;47273;49.274;8.708;2022-12-07T14:59:22;18.58;;;8.90;;
46339;SDS011;47273;49.274;8.708;2022-12-07T15:01:48;19.67;;;9.18;;
46339;SDS011;47273;49.274;8.708;2022-12-07T15:04:14;18.13;;;8.15;;
46339;SDS011;47273;49.274;8.708;2022-12-07T15:06:39;17.48;;;7.93;;
46339;SDS011;47273;49.274;8.708;2022-12-07T15:09:08;17.65;;;8.68;;
46339;SDS011;47273;49.274;8.708;2022-12-07T15:11:36;13.43;;;8.02;;
46339;SDS011;47273;49.274;8.708;2022-12-07T15:14:01;16.42;;;8.55;;
46339;SDS011;47273;49.274;8.708;2022-12-07T15:16:33;18.10;;;9.57;;
46339;SDS011;47273;49.274;8.708;2022-12-07T15:19:00;19.92;;;9.65;;
46339;SDS011;47273;49.274;8.708;2022-12-07T15:21:25;22.52;;;10.23;;
46339;SDS011;47273;49.274;8.708;2022-12-07T15:23:51;20.65;;;8.50;;
46339;SDS011;47273;49.274;8.708;2022-12-07T15:26:17;15.68;;;9.50;;
46339;SDS011;47273;49.274;8.708;2022-12-07T15:28:42;20.40;;;9.20;;
46339;SDS011;47273;49.274;8.708;2022-12-07T15:31:12;18.13;;;9.10;;
46339;SDS011;47273;49.274;8.708;2022-12-07T15:33:38;17.70;;;8.00;;
46339;SDS011;47273;49.274;8.708;2022-12-07T15:36:04;17.00;;;8.80;;
46339;SDS011;47273;49.274;8.708;2022-12-07T15:38:30;20.75;;;9.25;;
46339;SDS011;47273;49.274;8.708;2022-12-07T15:40:56;23.23;;;10.38;;
46339;SDS011;47273;49.274;8.708;2022-12-07T15:43:22;19.48;;;9.93;;
46339;SDS011;47273;49.274;8.708;2022-12-07T15:46:06;17.55;;;9.52;;
46339;SDS011;47273;49.274;8.708;2022-12-07T15:48:32;25.02;;;10.65;;
46339;SDS011;47273;49.274;8.708;2022-12-07T15:51:02;19.10;;;9.52;;
46339;SDS011;47273;49.274;8.708;2022-12-07T15:53:28;19.33;;;9.02;;
46339;SDS011;47273;49.274;8.708;2022-12-07T15:55:54;16.63;;;8.65;;
46339;SDS011;47273;49.274;8.708;2022-12-07T15:58:19;25.95;;;10.27;;
46339;SDS011;47273;49.274;8.708;2022-12-07T16:00:45;19.65;;;8.95;;
46339;SDS011;47273;49.274;8.708;2022-12-07T16:03:13;20.05;;;9.52;;
46339;SDS011;47273;49.274;8.708;2022-12-07T16:05:38;16.83;;;8.73;;
46339;SDS011;47273;49.274;8.708;2022-12-07T16:08:04;16.45;;;8.70;;
46339;SDS011;47273;49.274;8.708;2022-12-07T16:10:30;19.25;;;9.45;;
46339;SDS011;47273;49.274;8.708;2022-12-07T16:12:56;19.08;;;8.70;;
46339;SDS011;47273;49.274;8.708;2022-12-07T16:15:21;25.90;;;9.30;;
46339;SDS011;47273;49.274;8.708;2022-12-07T16:17:49;20.42;;;9.80;;
46339;SDS011;47273;49.274;8.708;2022-12-07T16:20:15;15.75;;;8.45;;
46339;SDS011;47273;49.274;8.708;2022-12-07T16:22:41;19.02;;;9.75;;
46339;SDS011;47273;49.274;8.708;2022-12-07T16:25:06;19.83;;;8.85;;
46339;SDS011;47273;49.274;8.708;2022-12-07T16:27:32;19.05;;;9.75;;
46339;SDS011;47273;49.274;8.708;2022-12-07T16:29:59;17.60;;;7.95;;
46339;SDS011;47273;49.274;8.708;2022-12-07T16:32:24;20.65;;;8.15;;
46339;SDS011;47273;49.274;8.708;2022-12-07T16:34:50;16.42;;;7.75;;
46339;SDS011;47273;49.274;8.708;2022-12-07T16:37:16;17.38;;;8.30;;
46339;SDS011;47273;49.274;8.708;2022-12-07T16:39:41;17.55;;;8.63;;
46339;SDS011;47273;49.274;8.708;2022-12-07T16:42:07;18.48;;;7.57;;
46339;SDS011;47273;49.274;8.708;2022-12-07T16:44:33;19.73;;;8.82;;
46339;SDS011;47273;49.274;8.708;2022-12-07T16:46:58;22.63;;;9.23;;
46339;SDS011;47273;49.274;8.708;2022-12-07T16:49:25;21.13;;;9.45;;
46339;SDS011;47273;49.274;8.708;2022-12-07T16:51:51;19.70;;;9.25;;
46339;SDS011;47273;49.274;8.708;2022-12-07T16:54:17;19.42;;;10.50;;
46339;SDS011;47273;49.274;8.708;2022-12-07T16:56:43;18.02;;;9.32;;
46339;SDS011;47273;49.274;8.708;2022-12-07T16:59:08;16.08;;;7.90;;
46339;SDS011;47273;49.274;8.708;2022-12-07T17:01:34;20.98;;;10.30;;
46339;SDS011;47273;49.274;8.708;2022-12-07T17:04:01;21.15;;;8.20;;
46339;SDS011;47273;49.274;8.708;2022-12-07T17:06:29;19.50;;;8.65;;
46339;SDS011;47273;49.274;8.708;2022-12-07T17:08:56;21.63;;;9.18;;
46339;SDS011;47273;49.274;8.708;2022-12-07T17:11:23;24.00;;;10.30;;
46339;SDS011;47273;49.274;8.708;2022-12-07T17:13:51;18.83;;;8.38;;
46339;SDS011;47273;49.274;8.708;2022-12-07T17:16:36;21.20;;;9.52;;
46339;SDS011;47273;49.274;8.708;2022-12-07T17:19:09;22.15;;;9.15;;
46339;SDS011;47273;49.274;8.708;2022-12-07T17:21:36;17.53;;;8.87;;
46339;SDS011;47273;49.274;8.708;2022-12-07T17:24:03;21.50;;;10.23;;
46339;SDS011;47273;49.274;8.708;2022-12-07T17:26:30;20.40;;;9.43;;
46339;SDS011;47273;49.274;8.708;2022-12-07T17:28:56;20.70;;;10.18;;
46339;SDS011;47273;49.274;8.708;2022-12-07T17:31:23;23.33;;;9.48;;
46339;SDS011;47273;49.274;8.708;2022-12-07T17:33:49;24.80;;;10.38;;
46339;SDS011;47273;49.274;8.708;2022-12-07T17:36:19;23.10;;;10.25;;
46339;SDS011;47273;49.274;8.708;2022-12-07T17:38:46;21.88;;;10.02;;
46339;SDS011;47273;49.274;8.708;2022-12-07T17:41:14;18.10;;;9.18;;
46339;SDS011;47273;49.274;8.708;2022-12-07T17:44:04;21.33;;;8.85;;
46339;SDS011;47273;49.274;8.708;2022-12-07T17:46:32;15.70;;;8.32;;
46339;SDS011;47273;49.274;8.708;2022-12-07T17:48:58;21.35;;;9.70;;
46339;SDS011;47273;49.274;8.708;2022-12-07T17:51:24;17.88;;;9.35;;
46339;SDS011;47273;49.274;8.708;2022-12-07T17:54:09;20.02;;;8.93;;
46339;SDS011;47273;49.274;8.708;2022-12-07T17:56:36;21.50;;;10.07;;
46339;SDS011;47273;49.274;8.708;2022-12-07T17:59:02;17.45;;;9.68;;
46339;SDS011;47273;49.274;8.708;2022-12-07T18:01:28;20.83;;;9.48;;
46339;SDS011;47273;49.274;8.708;2022-12-07T18:03:54;19.10;;;8.65;;
46339;SDS011;47273;49.274;8.708;2022-12-07T18:06:19;21.52;;;9.70;;
46339;SDS011;47273;49.274;8.708;2022-12-07T18:08:45;21.80;;;10.18;;
46339;SDS011;47273;49.274;8.708;2022-12-07T18:11:11;21.83;;;9.60;;
46339;SDS011;47273;49.274;8.708;2022-12-07T18:13:36;22.83;;;11.57;;
46339;SDS011;47273;49.274;8.708;2022-12-07T18:16:03;22.58;;;10.50;;
46339;SDS011;47273;49.274;8.708;2022-12-07T18:18:30;28.10;;;10.82;;
46339;SDS011;47273;49.274;8.708;2022-12-07T18:20:56;24.88;;;10.63;;
46339;SDS011;47273;49.274;8.708;2022-12-07T18:23:22;20.20;;;10.32;;
46339;SDS011;47273;49.274;8.708;2022-12-07T18:25:51;17.90;;;9.15;;
46339;SDS011;47273;49.274;8.708;2022-12-07T18:28:17;18.90;;;9.35;;
46339;SDS011;47273;49.274;8.708;2022-12-07T18:30:44;24.10;;;9.82;;
46339;SDS011;47273;49.274;8.708;2022-12-07T18:33:16;18.33;;;9.45;;
46339;SDS011;47273;49.274;8.708;2022-12-07T18:35:42;21.45;;;9.68;;
46339;SDS011;47273;49.274;8.708;2022-12-07T18:38:08;24.00;;;10.20;;
46339;SDS011;47273;49.274;8.708;2022-12-07T18:40:37;25.42;;;10.77;;
46339;SDS011;47273;49.274;8.708;2022-12-07T18:43:04;26.23;;;10.95;;
46339;SDS011;47273;49.274;8.708;2022-12-07T18:45:35;27.23;;;10.57;;
46339;SDS011;47273;49.274;8.708;2022-12-07T18:48:02;24.55;;;10.02;;
46339;SDS011;47273;49.274;8.708;2022-12-07T18:50:28;20.08;;;10.00;;
46339;SDS011;47273;49.274;8.708;2022-12-07T18:52:56;31.10;;;10.98;;
46339;SDS011;47273;49.274;8.708;2022-12-07T18:55:23;21.50;;;9.75;;
46339;SDS011;47273;49.274;8.708;2022-12-07T18:57:50;23.92;;;10.20;;
46339;SDS011;47273;49.274;8.708;2022-12-07T19:00:16;21.98;;;10.43;;
46339;SDS011;47273;49.274;8.708;2022-12-07T19:02:43;22.52;;;10.60;;
46339;SDS011;47273;49.274;8.708;2022-12-07T19:05:08;24.70;;;9.82;;
46339;SDS011;47273;49.274;8.708;2022-12-07T19:07:34;27.70;;;11.45;;
46339;SDS011;47273;49.274;8.708;2022-12-07T19:10:00;28.80;;;10.65;;
46339;SDS011;47273;49.274;8.708;2022-12-07T19:12:25;26.05;;;10.65;;
46339;SDS011;47273;49.274;8.708;2022-12-07T19:14:51;19.55;;;10.15;;
46339;SDS011;47273;49.274;8.708;2022-12-07T19:17:18;24.63;;;10.45;;
46339;SDS011;47273;49.274;8.708;2022-12-07T19:19:44;27.35;;;11.40;;
46339;SDS011;47273;49.274;8.708;2022-12-07T19:22:13;29.27;;;12.63;;
46339;SDS011;47273;49.274;8.708;2022-12-07T19:24:39;27.80;;;11.57;;
46339;SDS011;47273;49.274;8.708;2022-12-07T19:27:06;29.48;;;10.70;;
46339;SDS011;47273;49.274;8.708;2022-12-07T19:29:33;23.85;;;11.80;;
46339;SDS011;47273;49.274;8.708;2022-12-07T19:31:59;27.27;;;11.63;;
46339;SDS011;47273;49.274;8.708;2022-12-07T19:34:27;30.00;;;11.43;;
46339;SDS011;47273;49.274;8.708;2022-12-07T19:36:53;28.10;;;11.23;;
46339;SDS011;47273;49.274;8.708;2022-12-07T19:39:18;26.67;;;11.55;;
46339;SDS011;47273;49.274;8.708;2022-12-07T19:41:44;22.40;;;10.82;;
46339;SDS011;47273;49.274;8.708;2022-12-07T19:46:43;26.35;;;11.05;;
46339;SDS011;47273;49.274;8.708;2022-12-07T19:49:11;27.85;;;10.65;;
46339;SDS011;47273;49.274;8.708;2022-12-07T19:51:40;25.58;;;11.52;;
46339;SDS011;47273;49.274;8.708;2022-12-07T19:54:10;19.60;;;10.52;;
46339;SDS011;47273;49.274;8.708;2022-12-07T19:56:38;22.33;;;11.32;;
46339;SDS011;47273;49.274;8.708;2022-12-07T19:59:04;28.05;;;11.60;;
46339;SDS011;47273;49.274;8.708;2022-12-07T20:01:32;26.58;;;11.63;;
46339;SDS011;47273;49.274;8.708;2022-12-07T20:03:58;23.25;;;11.23;;
46339;SDS011;47273;49.274;8.708;2022-12-07T20:06:24;23.20;;;11.25;;
46339;SDS011;47273;49.274;8.708;2022-12-07T20:08:50;29.60;;;12.82;;
46339;SDS011;47273;49.274;8.708;2022-12-07T20:11:18;27.13;;;11.07;;
46339;SDS011;47273;49.274;8.708;2022-12-07T20:16:36;22.15;;;10.82;;
46339;SDS011;47273;49.274;8.708;2022-12-07T20:19:05;38.55;;;13.38;;
46339;SDS011;47273;49.274;8.708;2022-12-07T20:21:32;24.33;;;11.25;;
46339;SDS011;47273;49.274;8.708;2022-12-07T20:23:59;25.55;;;11.35;;
46339;SDS011;47273;49.274;8.708;2022-12-07T20:26:26;26.63;;;13.70;;
46339;SDS011;47273;49.274;8.708;2022-12-07T20:28:52;23.65;;;11.32;;
46339;SDS011;47273;49.274;8.708;2022-12-07T20:31:18;20.90;;;11.45;;
46339;SDS011;47273;49.274;8.708;2022-12-07T20:33:43;21.05;;;10.73;;
46339;SDS011;47273;49.274;8.708;2022-12-07T20:36:10;26.88;;;12.43;;
46339;SDS011;47273;49.274;8.708;2022-12-07T20:38:42;32.55;;;12.98;;
46339;SDS011;47273;49.274;8.708;2022-12-07T20:41:09;27.67;;;10.95;;
46339;SDS011;47273;49.274;8.708;2022-12-07T20:43:54;27.63;;;12.52;;
46339;SDS011;47273;49.274;8.708;2022-12-07T20:46:22;35.08;;;13.25;;
46339;SDS011;47273;49.274;8.708;2022-12-07T20:48:48;28.42;;;12.95;;
46339;SDS011;47273;49.274;8.708;2022-12-07T20:51:14;31.13;;;13.23;;
46339;SDS011;47273;49.274;8.708;2022-12-07T20:53:40;26.73;;;12.60;;
46339;SDS011;47273;49.274;8.708;2022-12-07T20:56:06;32.45;;;13.43;;
46339;SDS011;47273;49.274;8.708;2022-12-07T20:58:31;32.30;;;13.30;;
46339;SDS011;47273;49.274;8.708;2022-12-07T21:01:03;26.77;;;12.27;;
46339;SDS011;47273;49.274;8.708;2022-12-07T21:03:29;29.90;;;12.50;;
46339;SDS011;47273;49.274;8.708;2022-12-07T21:05:54;29.40;;;12.50;;
46339;SDS011;47273;49.274;8.708;2022-12-07T21:08:20;29.73;;;13.38;;
46339;SDS011;47273;49.274;8.708;2022-12-07T21:10:46;25.13;;;11.68;;
46339;SDS011;47273;49.274;8.708;2022-12-07T21:13:11;31.63;;;13.38;;
46339;SDS011;47273;49.274;8.708;2022-12-07T21:15:37;29.20;;;13.85;;
46339;SDS011;47273;49.274;8.708;2022-12-07T21:18:03;28.73;;;12.85;;
46339;SDS011;47273;49.274;8.708;2022-12-07T21:20:39;31.48;;;11.40;;
46339;SDS011;47273;49.274;8.708;2022-12-07T21:23:05;27.02;;;12.90;;
46339;SDS011;47273;49.274;8.708;2022-12-07T21:25:30;29.02;;;13.30;;
46339;SDS011;47273;49.274;8.708;2022-12-07T21:27:57;32.33;;;12.40;;
